createdAt,value
2022-08-09T00:00:24.621Z,18.90
2022-08-09T00:02:58.359Z,18.95
2022-08-09T00:06:15.962Z,19.08
2022-08-09T00:08:03.298Z,18.97
2022-08-09T00:10:35.680Z,18.98
2022-08-09T00:13:16.664Z,19.00
2022-08-09T00:15:57.889Z,18.95
2022-08-09T00:18:12.754Z,18.97
2022-08-09T00:20:49.972Z,18.95
2022-08-09T00:23:55.643Z,19.02
2022-08-09T00:25:51.912Z,18.86
2022-08-09T00:28:26.514Z,18.83
2022-08-09T00:30:58.823Z,18.80
2022-08-09T00:33:32.500Z,18.78
2022-08-09T00:36:03.198Z,18.81
2022-08-09T00:38:34.020Z,18.69
2022-08-09T00:41:08.257Z,18.79
2022-08-09T00:44:13.223Z,18.83
2022-08-09T00:46:14.601Z,18.81
2022-08-09T00:48:47.581Z,18.76
2022-08-09T00:51:19.798Z,18.85
2022-08-09T00:53:52.575Z,18.85
2022-08-09T00:56:23.578Z,18.73
2022-08-09T00:58:55.558Z,18.64
2022-08-09T01:01:32.417Z,18.68
2022-08-09T01:04:05.141Z,18.59
2022-08-09T01:06:54.691Z,18.59
2022-08-09T01:09:37.639Z,18.64
2022-08-09T01:12:28.332Z,18.61
2022-08-09T01:15:10.022Z,18.74
2022-08-09T01:17:43.640Z,18.63
2022-08-09T01:20:18.590Z,18.51
2022-08-09T01:24:01.903Z,18.55
2022-08-09T01:25:51.253Z,18.49
2022-08-09T01:28:26.163Z,18.55
2022-08-09T01:31:00.004Z,18.61
2022-08-09T01:33:33.439Z,18.54
2022-08-09T01:36:13.645Z,18.52
2022-08-09T01:38:47.550Z,18.57
2022-08-09T01:41:26.137Z,18.58
2022-08-09T01:43:55.633Z,18.58
2022-08-09T01:46:35.577Z,18.60
2022-08-09T01:49:14.564Z,18.62
2022-08-09T01:51:53.742Z,18.56
2022-08-09T01:54:20.796Z,18.57
2022-08-09T01:56:53.896Z,18.55
2022-08-09T01:59:27.222Z,18.52
2022-08-09T02:02:01.833Z,18.54
2022-08-09T02:04:35.053Z,18.48
2022-08-09T02:07:15.247Z,18.51
2022-08-09T02:09:45.783Z,18.54
2022-08-09T02:12:21.327Z,18.38
2022-08-09T02:14:54.225Z,18.43
2022-08-09T02:18:00.321Z,18.30
2022-08-09T02:20:02.889Z,18.39
2022-08-09T02:22:46.410Z,18.34
2022-08-09T02:25:20.471Z,18.42
2022-08-09T02:28:03.882Z,18.45
2022-08-09T02:30:35.849Z,18.37
2022-08-09T02:33:14.545Z,18.33
2022-08-09T02:36:02.815Z,18.39
2022-08-09T02:38:21.990Z,18.39
2022-08-09T02:40:49.766Z,18.36
2022-08-09T02:43:23.648Z,18.41
2022-08-09T02:45:56.006Z,18.47
2022-08-09T02:48:30.910Z,18.43
2022-08-09T02:51:02.669Z,18.50
2022-08-09T02:53:36.478Z,18.45
2022-08-09T02:56:10.489Z,18.46
2022-08-09T02:58:42.797Z,18.46
2022-08-09T03:01:21.854Z,18.39
2022-08-09T03:04:17.873Z,18.16
2022-08-09T03:06:27.713Z,18.22
2022-08-09T03:08:58.437Z,18.22
2022-08-09T03:12:05.718Z,18.19
2022-08-09T03:14:03.736Z,18.18
2022-08-09T03:16:41.435Z,18.22
2022-08-09T03:19:14.400Z,18.22
2022-08-09T03:21:44.178Z,18.19
2022-08-09T03:24:31.172Z,18.16
2022-08-09T03:26:50.196Z,17.97
2022-08-09T03:29:24.538Z,17.98
2022-08-09T03:32:00.192Z,18.06
2022-08-09T03:34:30.629Z,18.10
2022-08-09T03:37:54.120Z,18.05
2022-08-09T03:39:37.521Z,17.96
2022-08-09T03:42:10.670Z,17.89
2022-08-09T03:44:42.172Z,17.93
2022-08-09T03:47:13.070Z,17.91
2022-08-09T03:49:58.056Z,17.88
2022-08-09T03:52:23.087Z,17.86
2022-08-09T03:54:57.516Z,17.84
2022-08-09T03:57:28.965Z,17.82
2022-08-09T04:00:01.821Z,17.87
2022-08-09T04:02:33.914Z,17.95
2022-08-09T04:05:26.804Z,18.03
2022-08-09T04:07:52.387Z,18.01
2022-08-09T04:10:11.724Z,18.05
2022-08-09T04:12:52.111Z,18.07
2022-08-09T04:15:51.949Z,18.09
2022-08-09T04:17:58.701Z,18.09
2022-08-09T04:20:30.088Z,18.03
2022-08-09T04:23:02.658Z,17.97
2022-08-09T04:25:35.460Z,18.02
2022-08-09T04:28:07.645Z,18.08
2022-08-09T04:30:38.499Z,18.13
2022-08-09T04:33:12.617Z,18.16
2022-08-09T04:35:45.214Z,18.01
2022-08-09T04:38:16.277Z,17.89
2022-08-09T04:40:56.201Z,17.92
2022-08-09T04:43:25.217Z,17.99
2022-08-09T04:45:55.923Z,17.99
2022-08-09T04:48:33.581Z,17.99
2022-08-09T04:51:01.088Z,17.85
2022-08-09T04:53:32.755Z,17.93
2022-08-09T04:56:05.781Z,17.97
2022-08-09T04:58:37.120Z,18.17
2022-08-09T05:01:16.022Z,18.22
2022-08-09T05:03:43.845Z,18.39
2022-08-09T05:06:21.832Z,18.48
2022-08-09T05:08:48.086Z,18.55
2022-08-09T05:11:19.503Z,18.52
2022-08-09T05:13:51.957Z,18.33
2022-08-09T05:16:28.566Z,18.29
2022-08-09T05:18:58.797Z,18.23
2022-08-09T05:21:36.532Z,18.32
2022-08-09T05:24:04.105Z,18.43
2022-08-09T05:26:45.647Z,18.42
2022-08-09T05:29:17.028Z,18.51
2022-08-09T05:31:46.614Z,18.54
2022-08-09T05:34:19.460Z,18.61
2022-08-09T05:36:51.149Z,18.55
2022-08-09T05:39:28.890Z,18.56
2022-08-09T05:42:01.456Z,18.60
2022-08-09T05:44:32.317Z,18.78
2022-08-09T05:47:05.621Z,18.76
2022-08-09T05:50:29.980Z,18.97
2022-08-09T05:52:10.575Z,19.00
2022-08-09T05:54:42.254Z,19.05
2022-08-09T05:57:14.263Z,19.14
2022-08-09T05:59:47.504Z,19.22
2022-08-09T06:02:19.216Z,19.15
2022-08-09T06:04:50.149Z,19.43
2022-08-09T06:07:22.042Z,19.37
2022-08-09T06:10:01.821Z,19.45
2022-08-09T06:12:26.517Z,19.82
2022-08-09T06:15:01.529Z,20.08
2022-08-09T06:17:40.061Z,20.02
2022-08-09T06:20:05.437Z,20.24
2022-08-09T06:22:37.471Z,20.30
2022-08-09T06:25:12.460Z,20.38
2022-08-09T06:27:50.402Z,20.41
2022-08-09T06:30:16.886Z,20.33
2022-08-09T06:33:00.076Z,20.33
2022-08-09T06:35:22.194Z,20.59
2022-08-09T06:38:05.645Z,20.27
2022-08-09T06:40:27.736Z,20.31
2022-08-09T06:43:01.974Z,20.58
2022-08-09T06:46:04.708Z,20.65
2022-08-09T06:48:06.260Z,20.66
2022-08-09T06:50:38.956Z,20.44
2022-08-09T06:53:11.684Z,20.35
2022-08-09T06:55:43.441Z,20.27
2022-08-09T06:58:40.725Z,20.35
2022-08-09T07:00:58.753Z,20.59
2022-08-09T07:03:28.226Z,20.71
2022-08-09T07:06:03.513Z,20.75
2022-08-09T07:08:33.370Z,20.83
2022-08-09T07:11:06.284Z,20.79
2022-08-09T07:13:45.482Z,21.09
2022-08-09T07:16:42.296Z,20.77
2022-08-09T07:18:43.328Z,21.13
2022-08-09T07:21:14.378Z,21.12
2022-08-09T07:23:56.364Z,21.06
2022-08-09T07:26:18.199Z,21.02
2022-08-09T07:29:09.328Z,21.14
2022-08-09T07:31:24.015Z,21.15
2022-08-09T07:33:55.849Z,21.40
2022-08-09T07:36:30.257Z,21.41
2022-08-09T07:39:02.279Z,21.40
2022-08-09T07:41:38.872Z,21.48
2022-08-09T07:44:07.866Z,21.59
2022-08-09T07:46:40.694Z,21.57
2022-08-09T07:49:15.364Z,21.48
2022-08-09T07:52:05.013Z,21.62
2022-08-09T07:54:28.183Z,21.77
2022-08-09T07:56:52.047Z,22.00
2022-08-09T07:59:34.031Z,21.68
2022-08-09T08:01:56.334Z,21.59
2022-08-09T08:04:32.260Z,21.68
2022-08-09T08:07:27.013Z,22.12
2022-08-09T08:09:41.231Z,21.66
2022-08-09T08:12:11.615Z,21.52
2022-08-09T08:14:39.578Z,21.52
2022-08-09T08:17:24.702Z,21.76
2022-08-09T08:19:45.248Z,22.05
2022-08-09T08:22:17.221Z,22.21
2022-08-09T08:24:53.130Z,22.05
2022-08-09T08:27:27.065Z,22.24
2022-08-09T08:30:00.047Z,22.22
2022-08-09T08:32:32.825Z,22.62
2022-08-09T08:35:04.749Z,22.58
2022-08-09T08:37:42.007Z,22.49
2022-08-09T08:40:09.897Z,22.72
2022-08-09T08:42:47.302Z,22.52
2022-08-09T08:45:19.242Z,22.73
2022-08-09T08:47:52.179Z,22.69
2022-08-09T08:50:25.430Z,22.85
2022-08-09T08:53:00.267Z,22.68
2022-08-09T08:55:32.202Z,22.68
2022-08-09T08:58:03.404Z,23.50
2022-08-09T09:00:36.381Z,23.28
2022-08-09T09:03:16.434Z,23.54
2022-08-09T09:06:00.909Z,23.64
2022-08-09T09:08:30.732Z,23.70
2022-08-09T09:10:52.235Z,23.84
2022-08-09T09:13:24.106Z,23.70
2022-08-09T09:15:57.331Z,23.56
2022-08-09T09:18:29.871Z,23.79
2022-08-09T09:21:01.641Z,23.78
2022-08-09T09:23:57.203Z,24.09
2022-08-09T09:26:23.862Z,24.39
2022-08-09T09:29:03.992Z,24.06
2022-08-09T09:32:07.063Z,23.94
2022-08-09T09:34:18.012Z,23.72
2022-08-09T09:36:53.759Z,23.91
2022-08-09T09:39:22.295Z,23.98
2022-08-09T09:41:55.018Z,24.26
2022-08-09T09:44:31.620Z,24.26
2022-08-09T09:47:15.286Z,24.23
2022-08-09T09:50:13.381Z,24.56
2022-08-09T09:52:36.029Z,24.00
2022-08-09T09:55:28.307Z,24.04
2022-08-09T09:58:03.177Z,24.26
2022-08-09T10:00:28.179Z,24.07
2022-08-09T10:03:11.772Z,23.96
2022-08-09T10:06:04.175Z,24.18
2022-08-09T10:08:27.429Z,25.01
2022-08-09T10:10:41.448Z,24.11
2022-08-09T10:13:12.607Z,24.48
2022-08-09T10:16:54.806Z,24.43
2022-08-09T10:18:26.927Z,24.75
2022-08-09T10:21:00.660Z,25.19
2022-08-09T10:23:33.300Z,25.58
2022-08-09T10:26:10.996Z,25.82
2022-08-09T10:28:48.812Z,25.15
2022-08-09T10:34:11.258Z,25.84
2022-08-09T10:36:23.998Z,26.32
2022-08-09T10:39:00.322Z,26.52
2022-08-09T10:41:31.272Z,26.12
2022-08-09T10:44:02.534Z,24.92
2022-08-09T10:46:55.649Z,25.35
2022-08-09T10:49:51.866Z,25.35
2022-08-09T10:52:32.437Z,25.18
2022-08-09T10:55:24.680Z,24.99
2022-08-09T10:58:00.115Z,25.17
2022-08-09T11:01:10.988Z,24.82
2022-08-09T11:03:51.837Z,25.56
2022-08-09T11:06:25.217Z,25.21
2022-08-09T11:09:15.280Z,25.19
2022-08-09T11:11:33.232Z,25.36
2022-08-09T11:14:32.373Z,25.15
2022-08-09T11:17:19.609Z,25.41
2022-08-09T11:20:11.571Z,26.08
2022-08-09T11:22:45.893Z,26.71
2022-08-09T11:25:25.958Z,26.91
2022-08-09T11:28:08.110Z,27.34
2022-08-09T11:30:36.195Z,27.64
2022-08-09T11:33:20.287Z,27.39
2022-08-09T11:36:07.875Z,27.41
2022-08-09T11:38:41.588Z,27.14
2022-08-09T11:41:15.778Z,27.44
2022-08-09T11:43:52.563Z,26.61
2022-08-09T11:46:33.289Z,26.85
2022-08-09T11:48:59.830Z,26.96
2022-08-09T11:52:56.991Z,26.91
2022-08-09T11:54:29.852Z,26.82
2022-08-09T11:56:54.375Z,26.29
2022-08-09T11:59:33.750Z,26.66
2022-08-09T12:02:34.483Z,26.38
2022-08-09T12:04:37.418Z,26.51
2022-08-09T12:07:10.666Z,26.24
2022-08-09T12:09:51.051Z,26.55
2022-08-09T12:12:20.538Z,26.52
2022-08-09T12:15:07.525Z,25.98
2022-08-09T12:17:42.215Z,25.79
2022-08-09T12:20:01.274Z,25.88
2022-08-09T12:22:32.995Z,25.75
2022-08-09T12:25:36.606Z,25.93
2022-08-09T12:29:11.081Z,26.42
2022-08-09T12:30:35.598Z,27.07
2022-08-09T12:33:07.550Z,27.48
2022-08-09T12:35:42.915Z,27.53
2022-08-09T12:38:31.911Z,27.58
2022-08-09T12:41:01.519Z,27.69
2022-08-09T12:44:05.749Z,27.82
2022-08-09T12:46:07.326Z,26.89
2022-08-09T12:48:38.994Z,25.55
2022-08-09T12:51:10.946Z,25.94
2022-08-09T12:53:45.026Z,26.34
2022-08-09T12:56:29.779Z,25.84
2022-08-09T12:59:13.819Z,25.86
2022-08-09T13:01:51.421Z,25.49
2022-08-09T13:04:36.757Z,24.97
2022-08-09T13:06:57.811Z,25.25
2022-08-09T13:09:30.470Z,25.45
2022-08-09T13:12:06.369Z,25.41
2022-08-09T13:14:45.504Z,24.78
2022-08-09T13:17:43.957Z,24.73
2022-08-09T13:20:08.356Z,24.47
2022-08-09T13:22:36.416Z,24.73
2022-08-09T13:25:03.340Z,24.72
2022-08-09T13:27:48.076Z,24.65
2022-08-09T13:30:51.077Z,24.30
2022-08-09T13:32:57.023Z,24.27
2022-08-09T13:35:34.241Z,24.69
2022-08-09T13:38:02.516Z,24.86
2022-08-09T13:41:55.004Z,24.77
2022-08-09T13:43:09.797Z,24.80
2022-08-09T13:46:42.534Z,24.16
2022-08-09T13:48:14.451Z,24.61
2022-08-09T13:50:46.025Z,24.76
2022-08-09T13:53:18.910Z,24.67
2022-08-09T13:55:51.745Z,25.03
2022-08-09T13:58:23.088Z,25.15
2022-08-09T14:00:57.446Z,25.12
2022-08-09T14:04:04.871Z,24.80
2022-08-09T14:06:02.805Z,24.99
2022-08-09T14:08:34.652Z,25.11
2022-08-09T14:11:09.986Z,25.12
2022-08-09T14:14:25.022Z,25.39
2022-08-09T14:16:15.102Z,25.18
2022-08-09T14:18:49.691Z,25.25
2022-08-09T14:21:23.431Z,25.01
2022-08-09T14:23:57.242Z,25.33
2022-08-09T14:26:33.709Z,25.42
2022-08-09T14:30:03.870Z,25.39
2022-08-09T14:31:52.097Z,25.37
2022-08-09T14:34:13.352Z,25.41
2022-08-09T14:36:46.451Z,25.25
2022-08-09T14:39:19.258Z,25.43
2022-08-09T14:41:50.119Z,25.77
2022-08-09T14:44:32.476Z,25.58
2022-08-09T14:47:12.714Z,25.95
2022-08-09T14:49:28.918Z,25.85
2022-08-09T14:52:01.999Z,26.14
2022-08-09T14:54:34.394Z,25.69
2022-08-09T14:57:08.447Z,25.95
2022-08-09T14:59:39.892Z,25.86
2022-08-09T15:02:10.952Z,25.93
2022-08-09T15:04:43.525Z,25.59
2022-08-09T15:07:16.211Z,25.38
2022-08-09T15:10:04.634Z,25.56
2022-08-09T15:12:21.094Z,25.27
2022-08-09T15:14:55.230Z,25.53
2022-08-09T15:17:26.695Z,25.24
2022-08-09T15:19:59.860Z,25.04
2022-08-09T15:22:31.241Z,24.75
2022-08-09T15:25:04.062Z,24.86
2022-08-09T15:27:47.803Z,24.93
2022-08-09T15:30:58.652Z,25.25
2022-08-09T15:32:42.215Z,25.34
2022-08-09T15:35:18.277Z,25.13
2022-08-09T15:37:56.722Z,24.82
2022-08-09T15:40:25.302Z,25.16
2022-08-09T15:42:56.996Z,25.30
2022-08-09T15:45:29.445Z,25.07
2022-08-09T15:48:05.521Z,24.67
2022-08-09T15:50:39.248Z,24.78
2022-08-09T15:54:02.267Z,24.94
2022-08-09T15:56:10.955Z,24.87
2022-08-09T15:58:24.091Z,25.09
2022-08-09T16:00:47.927Z,25.14
2022-08-09T16:03:29.300Z,25.07
2022-08-09T16:05:55.950Z,25.01
2022-08-09T16:08:31.261Z,24.93
2022-08-09T16:10:58.492Z,24.83
2022-08-09T16:14:02.620Z,24.60
2022-08-09T16:16:10.003Z,24.79
2022-08-09T16:18:35.453Z,24.52
2022-08-09T16:21:07.692Z,24.48
2022-08-09T16:23:40.231Z,24.62
2022-08-09T16:26:20.035Z,24.76
2022-08-09T16:28:48.919Z,24.52
2022-08-09T16:32:10.559Z,24.78
2022-08-09T16:34:06.853Z,24.77
2022-08-09T16:36:39.783Z,24.93
2022-08-09T16:39:11.024Z,24.83
2022-08-09T16:42:03.189Z,24.48
2022-08-09T16:44:14.792Z,24.79
2022-08-09T16:46:54.937Z,24.94
2022-08-09T16:50:29.869Z,24.91
2022-08-09T16:51:53.981Z,24.91
2022-08-09T16:54:25.975Z,24.75
2022-08-09T16:56:57.343Z,24.79
2022-08-09T16:59:29.343Z,24.84
2022-08-09T17:02:03.542Z,24.72
2022-08-09T17:04:36.261Z,25.05
2022-08-09T17:08:40.534Z,24.96
2022-08-09T17:09:45.159Z,24.96
2022-08-09T17:12:14.609Z,24.87
2022-08-09T17:14:48.057Z,25.20
2022-08-09T17:17:23.754Z,25.03
2022-08-09T17:20:29.932Z,25.26
2022-08-09T17:22:30.823Z,24.97
2022-08-09T17:25:03.230Z,25.02
2022-08-09T17:27:32.050Z,24.86
2022-08-09T17:30:09.514Z,24.75
2022-08-09T17:32:38.789Z,24.67
2022-08-09T17:35:13.456Z,24.72
2022-08-09T17:38:11.377Z,24.93
2022-08-09T17:40:21.022Z,24.76
2022-08-09T17:42:55.589Z,24.73
2022-08-09T17:45:56.838Z,24.58
2022-08-09T17:48:02.795Z,24.62
2022-08-09T17:50:36.773Z,24.58
2022-08-09T17:53:19.489Z,24.50
2022-08-09T17:55:48.706Z,24.46
2022-08-09T17:58:15.339Z,24.33
2022-08-09T18:00:48.310Z,24.35
2022-08-09T18:03:19.218Z,24.58
2022-08-09T18:05:53.623Z,24.66
2022-08-09T18:08:27.287Z,24.48
2022-08-09T18:11:01.998Z,24.49
2022-08-09T18:13:43.000Z,24.51
2022-08-09T18:16:07.692Z,23.46
2022-08-09T18:18:42.922Z,23.56
2022-08-09T18:21:23.810Z,23.27
2022-08-09T18:24:09.944Z,23.37
2022-08-09T18:26:17.170Z,23.14
2022-08-09T18:30:38.508Z,23.40
2022-08-09T18:31:51.022Z,23.47
2022-08-09T18:33:57.266Z,23.12
2022-08-09T18:36:32.118Z,22.81
2022-08-09T18:39:03.249Z,22.62
2022-08-09T18:41:35.530Z,22.49
2022-08-09T18:44:13.653Z,22.52
2022-08-09T18:46:50.146Z,22.29
2022-08-09T18:49:14.377Z,22.20
2022-08-09T18:51:55.529Z,22.22
2022-08-09T18:54:28.689Z,22.05
2022-08-09T18:56:55.093Z,22.08
2022-08-09T18:59:25.595Z,21.82
2022-08-09T19:01:56.649Z,21.75
2022-08-09T19:04:35.185Z,21.38
2022-08-09T19:07:02.047Z,21.00
2022-08-09T19:10:14.927Z,20.87
2022-08-09T19:12:10.330Z,21.16
2022-08-09T19:14:43.391Z,21.38
2022-08-09T19:17:14.914Z,21.28
2022-08-09T19:19:47.817Z,21.23
2022-08-09T19:22:18.966Z,21.15
2022-08-09T19:25:09.797Z,21.15
2022-08-09T19:27:23.481Z,21.17
2022-08-09T19:30:22.988Z,21.05
2022-08-09T19:32:31.351Z,20.82
2022-08-09T19:35:02.399Z,20.75
2022-08-09T19:37:54.398Z,20.70
2022-08-09T19:40:07.266Z,20.47
2022-08-09T19:42:38.955Z,20.55
2022-08-09T19:45:11.857Z,20.64
2022-08-09T19:47:45.236Z,20.64
2022-08-09T19:50:49.141Z,20.33
2022-08-09T19:52:52.209Z,20.27
2022-08-09T19:55:39.089Z,20.25
2022-08-09T19:58:00.215Z,20.01
2022-08-09T20:00:31.407Z,20.18
2022-08-09T20:04:23.812Z,20.13
2022-08-09T20:05:46.661Z,20.25
2022-08-09T20:08:13.259Z,20.09
2022-08-09T20:10:47.956Z,20.00
2022-08-09T20:13:21.985Z,19.86
2022-08-09T20:16:34.713Z,19.72
2022-08-09T20:18:28.386Z,19.42
2022-08-09T20:21:00.051Z,19.36
2022-08-09T20:23:38.913Z,19.25
2022-08-09T20:26:06.801Z,19.17
2022-08-09T20:28:49.717Z,18.60
2022-08-09T20:33:52.479Z,18.57
2022-08-09T20:36:21.000Z,18.47
2022-08-09T20:39:28.204Z,18.43
2022-08-09T20:41:35.314Z,18.43
2022-08-09T20:44:00.778Z,18.60
2022-08-09T20:46:42.157Z,18.44
2022-08-09T20:49:06.559Z,18.39
2022-08-09T20:51:40.914Z,18.26
2022-08-09T20:54:17.174Z,18.35
2022-08-09T20:56:53.829Z,18.26
2022-08-09T20:59:50.073Z,18.36
2022-08-09T21:02:00.099Z,18.35
2022-08-09T21:05:51.134Z,18.30
2022-08-09T21:07:11.877Z,18.15
2022-08-09T21:09:55.584Z,18.07
2022-08-09T21:14:48.984Z,17.97
2022-08-09T21:18:22.111Z,18.00
2022-08-09T21:20:16.957Z,17.94
2022-08-09T21:22:35.763Z,17.92
2022-08-09T21:25:16.600Z,17.86
2022-08-09T21:27:51.614Z,17.81
2022-08-09T21:30:22.216Z,17.71
2022-08-09T21:32:55.236Z,17.07
2022-08-09T21:35:28.097Z,16.94
2022-08-09T21:38:01.282Z,17.25
2022-08-09T21:40:32.774Z,17.22
2022-08-09T21:43:06.133Z,17.10
2022-08-09T21:45:38.935Z,17.20
2022-08-09T21:48:12.099Z,17.07
2022-08-09T21:50:49.780Z,17.11
2022-08-09T21:53:39.781Z,17.07
2022-08-09T21:55:50.517Z,17.05
2022-08-09T21:58:21.453Z,17.08
2022-08-09T22:00:55.684Z,17.23
2022-08-09T22:03:26.913Z,17.21
2022-08-09T22:05:58.645Z,17.12
2022-08-09T22:08:31.699Z,17.12
2022-08-09T22:12:05.272Z,16.97
2022-08-09T22:13:37.455Z,16.87
2022-08-09T22:16:09.557Z,16.86
2022-08-09T22:18:44.127Z,16.73
2022-08-09T22:21:22.392Z,16.77
2022-08-09T22:23:59.593Z,16.73
2022-08-09T22:26:33.984Z,16.71
2022-08-09T22:28:53.991Z,16.61
2022-08-09T22:31:25.251Z,16.64
2022-08-09T22:33:57.729Z,16.68
2022-08-09T22:36:45.832Z,16.60
2022-08-09T22:39:02.511Z,16.61
2022-08-09T22:41:35.312Z,16.54
2022-08-09T22:44:06.569Z,16.44
2022-08-09T22:48:14.811Z,16.46
2022-08-09T22:49:11.860Z,16.28
2022-08-09T22:51:49.986Z,16.33
2022-08-09T22:54:17.040Z,16.32
2022-08-09T22:56:54.739Z,16.21
2022-08-09T22:59:57.933Z,16.22
2022-08-09T23:01:55.195Z,16.29
2022-08-09T23:04:26.191Z,16.21
2022-08-09T23:07:16.355Z,16.22
2022-08-09T23:09:47.421Z,16.22
2022-08-09T23:12:18.389Z,16.31
2022-08-09T23:14:49.641Z,16.34
2022-08-09T23:17:22.136Z,16.17
2022-08-09T23:20:07.460Z,16.16
2022-08-09T23:22:25.991Z,16.18
2022-08-09T23:24:57.052Z,16.07
2022-08-09T23:27:28.015Z,16.05
2022-08-09T23:29:58.860Z,16.04
2022-08-09T23:32:29.855Z,16.04
2022-08-09T23:35:00.787Z,16.05
2022-08-09T23:37:33.298Z,15.98
2022-08-09T23:40:04.995Z,15.89
2022-08-09T23:42:36.167Z,15.87
2022-08-09T23:45:09.247Z,15.83
2022-08-09T23:47:40.475Z,15.75
2022-08-09T23:50:12.076Z,15.88
2022-08-09T23:52:43.005Z,15.81
2022-08-09T23:55:17.814Z,15.71
2022-08-09T23:58:07.224Z,15.68
